createdAt,value
2023-01-26T00:01:20.534Z,6.97
2023-01-26T00:03:48.584Z,8.30
2023-01-26T00:06:18.992Z,7.53
2023-01-26T00:08:49.016Z,7.27
2023-01-26T00:11:18.844Z,7.57
2023-01-26T00:13:49.571Z,7.40
2023-01-26T00:16:17.232Z,6.37
2023-01-26T00:18:44.445Z,8.20
2023-01-26T00:21:16.873Z,7.93
2023-01-26T00:23:43.889Z,5.43
2023-01-26T00:26:14.318Z,7.47
2023-01-26T00:28:41.690Z,5.50
2023-01-26T00:31:17.859Z,7.57
2023-01-26T00:33:45.360Z,7.43
2023-01-26T00:36:12.958Z,8.27
2023-01-26T00:38:40.960Z,7.27
2023-01-26T00:41:09.700Z,7.23
2023-01-26T00:43:36.758Z,7.43
2023-01-26T00:46:03.793Z,7.40
2023-01-26T00:48:30.703Z,7.53
2023-01-26T00:50:57.782Z,7.63
2023-01-26T00:53:24.746Z,7.20
2023-01-26T00:55:56.086Z,7.87
2023-01-26T00:58:23.194Z,7.50
2023-01-26T01:00:50.140Z,7.00
2023-01-26T01:03:17.134Z,7.80
2023-01-26T01:05:47.464Z,6.57
2023-01-26T01:08:14.415Z,6.60
2023-01-26T01:10:41.311Z,6.43
2023-01-26T01:13:08.209Z,7.70
2023-01-26T01:15:35.205Z,7.93
2023-01-26T01:18:02.103Z,6.37
2023-01-26T01:20:30.046Z,5.07
2023-01-26T01:22:56.921Z,7.47
2023-01-26T01:25:24.010Z,7.50
2023-01-26T01:27:51.039Z,4.23
2023-01-26T01:30:18.192Z,7.73
2023-01-26T01:32:46.124Z,7.53
2023-01-26T01:35:13.013Z,6.73
2023-01-26T01:37:40.078Z,7.40
2023-01-26T01:40:11.490Z,6.00
2023-01-26T01:42:47.204Z,6.53
2023-01-26T01:45:26.131Z,6.33
2023-01-26T01:47:59.360Z,6.70
2023-01-26T01:50:28.168Z,6.50
2023-01-26T01:52:56.362Z,7.23
2023-01-26T01:55:25.748Z,5.53
2023-01-26T01:58:00.427Z,6.73
2023-01-26T02:00:27.993Z,7.47
2023-01-26T02:03:12.030Z,6.57
2023-01-26T02:06:07.973Z,7.77
2023-01-26T02:08:41.035Z,5.80
2023-01-26T02:11:13.307Z,6.57
2023-01-26T02:13:42.363Z,7.33
2023-01-26T02:16:09.588Z,6.83
2023-01-26T02:18:36.781Z,6.73
2023-01-26T02:21:09.635Z,6.93
2023-01-26T02:23:57.377Z,7.03
2023-01-26T02:26:27.877Z,6.80
2023-01-26T02:28:55.880Z,6.87
2023-01-26T02:31:24.001Z,7.53
2023-01-26T02:33:51.648Z,7.30
2023-01-26T02:36:24.608Z,6.60
2023-01-26T02:39:09.320Z,6.80
2023-01-26T02:41:54.874Z,6.13
2023-01-26T02:44:22.691Z,6.60
2023-01-26T02:46:49.598Z,7.13
2023-01-26T02:49:35.862Z,6.80
2023-01-26T02:52:05.270Z,8.27
2023-01-26T02:54:52.809Z,6.67
2023-01-26T02:57:19.851Z,6.03
2023-01-26T02:59:46.843Z,6.17
2023-01-26T03:02:14.643Z,6.33
2023-01-26T03:04:42.501Z,7.80
2023-01-26T03:07:09.635Z,7.37
2023-01-26T03:09:36.976Z,7.33
2023-01-26T03:12:04.021Z,7.60
2023-01-26T03:14:31.316Z,6.37
2023-01-26T03:16:58.268Z,6.60
2023-01-26T03:19:43.744Z,6.43
2023-01-26T03:22:30.406Z,6.27
2023-01-26T03:25:17.053Z,6.85
2023-01-26T03:27:49.379Z,5.53
2023-01-26T03:30:19.069Z,5.63
2023-01-26T03:32:47.769Z,7.27
2023-01-26T03:35:22.760Z,7.30
2023-01-26T03:37:54.871Z,7.27
2023-01-26T03:41:02.605Z,6.90
2023-01-26T03:43:48.761Z,6.43
2023-01-26T03:46:34.686Z,7.20
2023-01-26T03:49:20.250Z,7.53
2023-01-26T03:52:09.481Z,7.47
2023-01-26T03:54:55.368Z,8.20
2023-01-26T03:57:22.423Z,7.90
2023-01-26T03:59:49.438Z,7.83
2023-01-26T04:02:38.813Z,8.07
2023-01-26T04:05:27.064Z,8.20
2023-01-26T04:08:20.740Z,6.67
2023-01-26T04:10:48.747Z,7.13
2023-01-26T04:13:34.359Z,6.37
2023-01-26T04:16:26.693Z,7.03
2023-01-26T04:19:12.838Z,6.80
2023-01-26T04:21:40.392Z,7.78
2023-01-26T04:24:17.329Z,8.53
2023-01-26T04:26:46.073Z,8.03
2023-01-26T04:29:23.336Z,7.47
2023-01-26T04:31:50.987Z,7.03
2023-01-26T04:34:20.625Z,8.77
2023-01-26T04:36:47.570Z,8.93
2023-01-26T04:39:16.088Z,8.00
2023-01-26T04:41:50.953Z,8.40
2023-01-26T04:44:19.717Z,8.10
2023-01-26T04:46:48.967Z,7.00
2023-01-26T04:49:17.272Z,8.30
2023-01-26T04:51:44.450Z,7.47
2023-01-26T04:54:11.897Z,7.57
2023-01-26T04:56:42.404Z,7.07
2023-01-26T04:59:10.850Z,7.30
2023-01-26T05:01:41.793Z,7.90
2023-01-26T05:04:10.466Z,7.93
2023-01-26T05:06:42.129Z,6.03
2023-01-26T05:09:10.125Z,7.50
2023-01-26T05:11:38.895Z,9.33
2023-01-26T05:14:25.110Z,8.43
2023-01-26T05:17:10.196Z,6.63
2023-01-26T05:20:06.855Z,7.90
2023-01-26T05:22:54.494Z,7.60
2023-01-26T05:25:40.494Z,5.70
2023-01-26T05:28:10.748Z,7.57
2023-01-26T05:30:37.907Z,8.23
2023-01-26T05:33:07.487Z,8.07
2023-01-26T05:35:34.785Z,8.27
2023-01-26T05:38:03.264Z,8.57
2023-01-26T05:40:32.690Z,8.07
2023-01-26T05:42:59.691Z,8.53
2023-01-26T05:45:53.085Z,7.50
2023-01-26T05:48:21.918Z,7.37
2023-01-26T05:50:51.632Z,8.27
2023-01-26T05:53:20.877Z,6.63
2023-01-26T05:55:48.895Z,8.33
2023-01-26T05:58:18.452Z,6.67
2023-01-26T06:00:45.768Z,7.97
2023-01-26T06:03:19.997Z,8.03
2023-01-26T06:05:53.752Z,7.53
2023-01-26T06:08:32.932Z,8.60
2023-01-26T06:11:18.516Z,9.27
2023-01-26T06:13:55.733Z,9.27
2023-01-26T06:16:25.577Z,8.70
2023-01-26T06:18:52.560Z,8.97
2023-01-26T06:21:19.616Z,9.07
2023-01-26T06:23:46.630Z,9.10
2023-01-26T06:26:15.394Z,8.80
2023-01-26T06:28:42.797Z,8.93
2023-01-26T06:31:14.240Z,8.87
2023-01-26T06:33:42.137Z,8.33
2023-01-26T06:36:12.055Z,8.63
2023-01-26T06:38:44.735Z,8.97
2023-01-26T06:41:12.094Z,8.63
2023-01-26T06:43:39.428Z,9.50
2023-01-26T06:46:07.328Z,5.33
2023-01-26T06:48:35.457Z,8.87
2023-01-26T06:51:20.483Z,8.37
2023-01-26T06:53:52.378Z,8.00
2023-01-26T06:56:33.231Z,7.37
2023-01-26T06:59:26.201Z,7.70
2023-01-26T07:02:22.556Z,5.73
2023-01-26T07:04:50.386Z,8.57
2023-01-26T07:07:17.413Z,8.33
2023-01-26T07:09:44.734Z,8.90
2023-01-26T07:12:11.920Z,9.00
2023-01-26T07:14:38.931Z,8.77
2023-01-26T07:17:05.811Z,8.97
2023-01-26T07:19:34.069Z,9.10
2023-01-26T07:22:01.953Z,7.63
2023-01-26T07:24:29.449Z,6.23
2023-01-26T07:26:57.044Z,8.70
2023-01-26T07:29:24.277Z,7.97
2023-01-26T07:31:51.483Z,9.43
2023-01-26T07:34:18.692Z,8.60
2023-01-26T07:36:45.714Z,7.57
2023-01-26T07:39:12.648Z,7.20
2023-01-26T07:41:39.578Z,7.67
2023-01-26T07:44:46.359Z,5.57
2023-01-26T07:47:14.668Z,8.00
2023-01-26T07:49:42.110Z,7.87
2023-01-26T07:52:09.308Z,7.63
2023-01-26T07:54:36.452Z,7.10
2023-01-26T07:57:03.923Z,8.63
2023-01-26T07:59:31.559Z,6.00
2023-01-26T08:01:58.529Z,8.53
2023-01-26T08:04:25.590Z,6.17
2023-01-26T08:06:53.184Z,6.73
2023-01-26T08:09:20.420Z,6.90
2023-01-26T08:11:47.317Z,7.67
2023-01-26T08:14:14.611Z,7.30
2023-01-26T08:16:41.508Z,7.80
2023-01-26T08:19:08.601Z,7.33
2023-01-26T08:21:36.062Z,8.13
2023-01-26T08:24:03.704Z,7.87
2023-01-26T08:26:30.652Z,7.63
2023-01-26T08:28:57.519Z,6.83
2023-01-26T08:31:25.578Z,7.10
2023-01-26T08:33:54.517Z,7.20
2023-01-26T08:36:23.039Z,7.03
2023-01-26T08:38:51.588Z,6.93
2023-01-26T08:41:18.943Z,7.37
2023-01-26T08:43:46.031Z,7.23
2023-01-26T08:46:13.109Z,7.07
2023-01-26T08:48:40.370Z,7.00
2023-01-26T08:51:08.590Z,7.30
2023-01-26T08:53:37.429Z,7.30
2023-01-26T08:56:06.452Z,6.60
2023-01-26T08:58:36.608Z,7.33
2023-01-26T09:01:07.207Z,7.20
2023-01-26T09:03:34.845Z,5.53
2023-01-26T09:06:02.825Z,6.80
2023-01-26T09:08:30.274Z,7.47
2023-01-26T09:10:57.423Z,6.90
2023-01-26T09:13:24.987Z,6.37
2023-01-26T09:15:52.060Z,7.07
2023-01-26T09:18:19.386Z,5.90
2023-01-26T09:20:46.315Z,7.00
2023-01-26T09:23:13.350Z,6.37
2023-01-26T09:25:40.426Z,7.30
2023-01-26T09:28:07.464Z,7.03
2023-01-26T09:30:34.794Z,6.47
2023-01-26T09:33:03.964Z,5.53
2023-01-26T09:35:31.485Z,6.93
2023-01-26T09:37:58.545Z,6.40
2023-01-26T09:40:37.429Z,6.70
2023-01-26T09:43:16.737Z,7.10
2023-01-26T09:46:08.822Z,6.87
2023-01-26T09:48:50.669Z,6.40
2023-01-26T09:51:25.034Z,6.63
2023-01-26T09:54:04.352Z,6.67
2023-01-26T09:56:32.798Z,6.60
2023-01-26T09:59:17.715Z,4.50
2023-01-26T10:01:54.980Z,5.57
2023-01-26T10:04:36.681Z,6.50
2023-01-26T10:07:09.987Z,7.53
2023-01-26T10:09:48.885Z,6.20
2023-01-26T10:12:23.550Z,5.63
2023-01-26T10:14:57.513Z,6.43
2023-01-26T10:17:34.181Z,7.00
2023-01-26T10:20:07.460Z,6.63
2023-01-26T10:22:40.689Z,6.63
2023-01-26T10:25:16.086Z,7.23
2023-01-26T10:27:46.013Z,6.77
2023-01-26T10:30:15.495Z,6.60
2023-01-26T10:32:44.397Z,6.53
2023-01-26T10:35:25.622Z,6.73
2023-01-26T10:37:53.311Z,6.10
2023-01-26T10:40:21.129Z,7.50
2023-01-26T10:42:57.591Z,7.67
2023-01-26T10:45:31.043Z,6.40
2023-01-26T10:48:26.804Z,6.73
2023-01-26T10:50:54.698Z,7.47
2023-01-26T10:53:30.009Z,6.13
2023-01-26T10:56:12.226Z,6.83
2023-01-26T10:58:45.773Z,9.00
2023-01-26T11:01:16.674Z,7.80
2023-01-26T11:04:00.378Z,6.60
2023-01-26T11:06:29.386Z,7.73
2023-01-26T11:09:09.467Z,8.00
2023-01-26T11:11:36.560Z,7.57
2023-01-26T11:14:16.637Z,8.70
2023-01-26T11:16:49.409Z,7.80
2023-01-26T11:19:43.594Z,7.70
2023-01-26T11:22:36.131Z,6.73
2023-01-26T11:25:24.983Z,6.73
2023-01-26T11:28:22.108Z,7.17
2023-01-26T11:31:19.934Z,6.80
2023-01-26T11:36:52.751Z,7.17
2023-01-26T11:39:31.761Z,7.37
2023-01-26T11:42:12.914Z,7.17
2023-01-26T11:45:16.550Z,7.47
2023-01-26T11:48:21.381Z,6.70
2023-01-26T11:51:03.199Z,7.30
2023-01-26T11:53:40.419Z,7.73
2023-01-26T11:56:07.311Z,6.88
2023-01-26T11:58:50.662Z,7.47
2023-01-26T12:01:41.519Z,8.57
2023-01-26T12:04:18.271Z,8.50
2023-01-26T12:06:47.605Z,8.18
2023-01-26T12:09:19.006Z,8.23
2023-01-26T12:11:58.166Z,8.33
2023-01-26T12:14:35.559Z,9.07
2023-01-26T12:17:17.692Z,7.80
2023-01-26T12:19:49.832Z,9.27
2023-01-26T12:22:26.412Z,9.00
2023-01-26T12:25:19.866Z,9.07
2023-01-26T12:27:59.085Z,9.17
2023-01-26T12:31:04.477Z,8.70
2023-01-26T12:33:33.255Z,7.23
2023-01-26T12:36:08.578Z,8.80
2023-01-26T12:39:03.791Z,8.70
2023-01-26T12:41:41.420Z,9.13
2023-01-26T12:44:36.933Z,8.27
2023-01-26T12:47:44.326Z,10.17
2023-01-26T12:50:26.319Z,8.40
2023-01-26T12:52:53.186Z,9.20
2023-01-26T12:55:32.837Z,9.60
2023-01-26T12:58:04.168Z,9.90
2023-01-26T13:00:33.873Z,8.93
2023-01-26T13:03:30.598Z,9.13
2023-01-26T13:06:19.111Z,9.10
2023-01-26T13:09:09.788Z,9.27
2023-01-26T13:11:54.586Z,9.03
2023-01-26T13:14:35.559Z,8.93
2023-01-26T13:17:24.202Z,10.20
2023-01-26T13:19:53.644Z,7.07
2023-01-26T13:22:23.726Z,10.50
2023-01-26T13:24:57.142Z,10.03
2023-01-26T13:27:34.015Z,9.87
2023-01-26T13:30:01.615Z,9.23
2023-01-26T13:32:36.686Z,9.93
2023-01-26T13:35:05.724Z,7.60
2023-01-26T13:37:43.005Z,8.47
2023-01-26T13:40:31.403Z,9.53
2023-01-26T13:43:06.088Z,9.73
2023-01-26T13:45:45.581Z,9.23
2023-01-26T13:48:17.147Z,8.65
2023-01-26T13:50:47.812Z,10.50
2023-01-26T13:53:41.702Z,9.80
2023-01-26T13:56:59.572Z,9.13
2023-01-26T13:59:26.617Z,9.47
2023-01-26T14:01:56.391Z,10.57
2023-01-26T14:04:24.786Z,9.67
2023-01-26T14:07:17.908Z,9.80
2023-01-26T14:09:48.703Z,9.90
2023-01-26T14:12:25.461Z,9.57
2023-01-26T14:14:56.266Z,10.02
2023-01-26T14:17:29.393Z,10.37
2023-01-26T14:19:58.410Z,9.73
2023-01-26T14:22:26.886Z,10.27
2023-01-26T14:24:54.680Z,9.33
2023-01-26T14:27:42.079Z,9.57
2023-01-26T14:30:25.884Z,9.60
2023-01-26T14:33:13.477Z,10.17
2023-01-26T14:35:41.597Z,9.37
2023-01-26T14:38:19.922Z,8.97
2023-01-26T14:40:48.738Z,9.63
2023-01-26T14:43:16.041Z,9.50
2023-01-26T14:45:55.097Z,10.47
2023-01-26T14:48:29.348Z,9.77
2023-01-26T14:50:56.767Z,10.73
2023-01-26T14:53:25.513Z,9.93
2023-01-26T14:55:53.972Z,10.70
2023-01-26T14:58:33.322Z,10.13
2023-01-26T15:01:01.587Z,7.97
2023-01-26T15:03:37.208Z,9.37
2023-01-26T15:06:27.731Z,10.10
2023-01-26T15:09:06.629Z,8.80
2023-01-26T15:11:58.665Z,9.83
2023-01-26T15:14:48.388Z,9.80
2023-01-26T15:17:40.581Z,8.33
2023-01-26T15:20:22.670Z,9.27
2023-01-26T15:22:51.907Z,9.10
2023-01-26T15:25:23.533Z,10.57
2023-01-26T15:27:59.238Z,8.80
2023-01-26T15:30:37.797Z,8.70
2023-01-26T15:33:04.898Z,9.27
2023-01-26T15:35:34.797Z,8.13
2023-01-26T15:38:20.149Z,10.53
2023-01-26T15:40:47.113Z,9.80
2023-01-26T15:43:18.678Z,10.60
2023-01-26T15:45:54.873Z,10.50
2023-01-26T15:48:23.025Z,8.60
2023-01-26T15:50:50.720Z,10.10
2023-01-26T15:53:20.566Z,8.53
2023-01-26T15:55:56.521Z,10.07
2023-01-26T15:58:24.311Z,9.27
2023-01-26T16:00:52.738Z,8.57
2023-01-26T16:03:22.328Z,10.60
2023-01-26T16:05:49.938Z,9.43
2023-01-26T16:08:17.819Z,10.37
2023-01-26T16:10:45.318Z,7.90
2023-01-26T16:13:14.847Z,9.70
2023-01-26T16:15:46.308Z,10.37
2023-01-26T16:18:13.548Z,8.87
2023-01-26T16:20:43.720Z,9.73
2023-01-26T16:23:22.640Z,8.17
2023-01-26T16:25:50.573Z,9.47
2023-01-26T16:28:18.332Z,9.37
2023-01-26T16:30:47.390Z,9.23
2023-01-26T16:33:17.399Z,9.17
2023-01-26T16:35:44.540Z,9.73
2023-01-26T16:38:14.144Z,9.60
2023-01-26T16:40:44.026Z,9.93
2023-01-26T16:43:24.019Z,9.00
2023-01-26T16:45:54.679Z,8.83
2023-01-26T16:48:22.967Z,8.60
2023-01-26T16:50:54.427Z,9.63
2023-01-26T16:53:25.696Z,7.77
2023-01-26T16:55:52.674Z,8.90
2023-01-26T16:58:20.360Z,8.60
2023-01-26T17:00:48.007Z,9.50
2023-01-26T17:03:15.074Z,9.50
2023-01-26T17:05:42.225Z,8.83
2023-01-26T17:08:09.603Z,9.37
2023-01-26T17:10:38.111Z,9.93
2023-01-26T17:13:05.785Z,10.03
2023-01-26T17:15:32.995Z,9.00
2023-01-26T17:18:00.015Z,8.50
2023-01-26T17:20:27.319Z,8.93
2023-01-26T17:22:54.325Z,8.70
2023-01-26T17:25:21.519Z,8.73
2023-01-26T17:27:49.944Z,10.07
2023-01-26T17:30:20.005Z,9.53
2023-01-26T17:32:46.964Z,9.43
2023-01-26T17:35:14.430Z,8.07
2023-01-26T17:37:41.442Z,8.37
2023-01-26T17:40:09.898Z,8.73
2023-01-26T17:42:36.940Z,9.13
2023-01-26T17:45:05.666Z,10.27
2023-01-26T17:47:33.785Z,9.80
2023-01-26T17:50:01.412Z,7.33
2023-01-26T17:52:28.417Z,9.27
2023-01-26T17:54:55.307Z,10.13
2023-01-26T17:57:22.252Z,10.97
2023-01-26T17:59:49.257Z,11.50
2023-01-26T18:02:16.998Z,9.47
2023-01-26T18:04:44.626Z,9.40
2023-01-26T18:07:11.609Z,8.03
2023-01-26T18:09:38.552Z,9.90
2023-01-26T18:12:05.867Z,10.60
2023-01-26T18:14:32.821Z,9.47
2023-01-26T18:16:59.734Z,8.53
2023-01-26T18:19:26.742Z,8.57
2023-01-26T18:21:53.659Z,8.63
2023-01-26T18:24:20.675Z,9.37
2023-01-26T18:26:49.438Z,8.70
2023-01-26T18:29:16.943Z,9.37
2023-01-26T18:31:43.993Z,8.47
2023-01-26T18:34:11.759Z,9.73
2023-01-26T18:36:39.126Z,8.63
2023-01-26T18:39:09.023Z,8.60
2023-01-26T18:41:36.446Z,9.10
2023-01-26T18:44:03.874Z,8.43
2023-01-26T18:46:33.731Z,9.13
2023-01-26T18:49:01.094Z,9.53
2023-01-26T18:51:29.962Z,9.13
2023-01-26T18:53:57.733Z,8.87
2023-01-26T18:56:24.834Z,9.77
2023-01-26T18:58:53.923Z,10.10
2023-01-26T19:01:21.760Z,8.27
2023-01-26T19:03:55.246Z,8.47
2023-01-26T19:06:24.015Z,9.67
2023-01-26T19:08:58.601Z,8.00
2023-01-26T19:11:31.201Z,9.30
2023-01-26T19:13:59.056Z,9.13
2023-01-26T19:16:27.066Z,9.07
2023-01-26T19:18:55.570Z,8.90
2023-01-26T19:21:25.085Z,9.53
2023-01-26T19:23:54.613Z,9.33
2023-01-26T19:26:24.443Z,9.23
2023-01-26T19:28:51.812Z,7.83
2023-01-26T19:31:20.329Z,9.00
2023-01-26T19:33:54.798Z,9.43
2023-01-26T19:36:23.517Z,9.47
2023-01-26T19:38:50.957Z,7.93
2023-01-26T19:41:20.118Z,10.10
2023-01-26T19:43:47.404Z,9.03
2023-01-26T19:46:15.397Z,9.87
2023-01-26T19:48:43.127Z,10.17
2023-01-26T19:51:17.009Z,8.07
2023-01-26T19:53:47.342Z,10.03
2023-01-26T19:56:17.509Z,9.33
2023-01-26T19:58:50.081Z,8.97
2023-01-26T20:01:17.553Z,8.90
2023-01-26T20:03:48.901Z,9.23
2023-01-26T20:06:18.363Z,9.17
2023-01-26T20:08:45.304Z,9.30
2023-01-26T20:11:12.325Z,9.27
2023-01-26T20:13:39.392Z,9.17
2023-01-26T20:16:07.161Z,8.83
2023-01-26T20:18:35.710Z,8.50
2023-01-26T20:21:02.992Z,9.23
2023-01-26T20:23:29.880Z,8.50
2023-01-26T20:26:08.788Z,8.33
2023-01-26T20:28:36.713Z,9.03
2023-01-26T20:31:30.018Z,9.93
2023-01-26T20:33:58.342Z,9.10
2023-01-26T20:36:28.356Z,7.80
2023-01-26T20:38:55.334Z,8.83
2023-01-26T20:41:29.143Z,8.33
2023-01-26T20:44:00.925Z,9.17
2023-01-26T20:46:31.248Z,7.87
2023-01-26T20:48:58.373Z,8.27
2023-01-26T20:51:29.561Z,9.63
2023-01-26T20:53:57.780Z,8.77
2023-01-26T20:56:24.888Z,7.50
2023-01-26T20:58:53.699Z,9.00
2023-01-26T21:01:21.438Z,6.90
2023-01-26T21:03:49.130Z,8.77
2023-01-26T21:06:20.890Z,7.17
2023-01-26T21:08:50.052Z,8.83
2023-01-26T21:11:17.795Z,9.13
2023-01-26T21:13:45.440Z,7.90
2023-01-26T21:16:17.069Z,7.87
2023-01-26T21:18:45.507Z,9.60
2023-01-26T21:21:15.301Z,8.83
2023-01-26T21:23:42.273Z,8.27
2023-01-26T21:26:30.386Z,7.93
2023-01-26T21:29:00.094Z,8.40
2023-01-26T21:31:30.015Z,8.93
2023-01-26T21:33:57.512Z,8.53
2023-01-26T21:36:27.230Z,9.93
2023-01-26T21:38:56.532Z,8.10
2023-01-26T21:41:44.172Z,7.37
2023-01-26T21:44:20.221Z,9.30
2023-01-26T21:46:50.713Z,8.40
2023-01-26T21:49:18.173Z,8.60
2023-01-26T21:52:04.124Z,7.97
2023-01-26T21:54:31.935Z,7.47
2023-01-26T21:56:59.623Z,8.10
2023-01-26T21:59:26.852Z,8.23
2023-01-26T22:01:56.311Z,8.40
2023-01-26T22:04:28.839Z,7.20
2023-01-26T22:06:57.184Z,7.27
2023-01-26T22:09:24.889Z,7.43
2023-01-26T22:11:52.108Z,7.70
2023-01-26T22:14:25.088Z,7.43
2023-01-26T22:16:52.349Z,7.80
2023-01-26T22:19:19.288Z,7.77
2023-01-26T22:21:47.099Z,7.60
2023-01-26T22:24:14.773Z,8.07
2023-01-26T22:26:44.804Z,7.20
2023-01-26T22:29:13.294Z,7.87
2023-01-26T22:31:40.588Z,6.40
2023-01-26T22:34:07.653Z,7.77
2023-01-26T22:36:34.640Z,6.83
2023-01-26T22:39:01.612Z,7.87
2023-01-26T22:41:30.179Z,7.63
2023-01-26T22:43:59.904Z,7.83
2023-01-26T22:46:29.575Z,8.43
2023-01-26T22:48:58.482Z,7.57
2023-01-26T22:51:28.891Z,7.07
2023-01-26T22:53:57.996Z,8.03
2023-01-26T22:56:26.336Z,8.37
2023-01-26T22:59:00.436Z,8.10
2023-01-26T23:01:33.092Z,8.23
2023-01-26T23:04:00.940Z,8.13
2023-01-26T23:06:28.351Z,8.07
2023-01-26T23:08:55.949Z,7.73
2023-01-26T23:11:27.935Z,7.53
2023-01-26T23:13:56.701Z,8.13
2023-01-26T23:16:24.518Z,7.10
2023-01-26T23:18:53.248Z,5.23
2023-01-26T23:21:20.686Z,8.17
2023-01-26T23:23:47.894Z,7.77
2023-01-26T23:26:14.781Z,7.47
2023-01-26T23:28:43.432Z,7.23
2023-01-26T23:31:12.514Z,6.50
2023-01-26T23:33:39.835Z,7.07
2023-01-26T23:36:08.877Z,7.43
2023-01-26T23:38:36.157Z,7.37
2023-01-26T23:41:05.591Z,6.90
2023-01-26T23:43:32.844Z,6.80
2023-01-26T23:46:00.256Z,6.53
2023-01-26T23:48:27.295Z,6.63
2023-01-26T23:51:01.605Z,7.70
2023-01-26T23:53:29.894Z,7.63
2023-01-26T23:55:58.869Z,6.30
2023-01-26T23:58:26.141Z,7.40
